sensor_id;sensor_type;location;lat;lon;timestamp;pressure;altitude;pressure_sealevel;temperature;humidity
56992;BME280;42885;49.754;18.636;2023-07-13T00:00:49;97986.03;;;22.46;100.00
56992;BME280;42885;49.754;18.636;2023-07-13T00:03:21;97987.36;;;22.46;100.00
56992;BME280;42885;49.754;18.636;2023-07-13T00:05:59;97987.53;;;22.45;100.00
56992;BME280;42885;49.754;18.636;2023-07-13T00:08:31;97981.33;;;22.52;100.00
56992;BME280;42885;49.754;18.636;2023-07-13T00:11:06;97968.36;;;22.73;100.00
56992;BME280;42885;49.754;18.636;2023-07-13T00:13:39;97977.02;;;22.47;100.00
56992;BME280;42885;49.754;18.636;2023-07-13T00:16:11;97967.48;;;22.49;100.00
56992;BME280;42885;49.754;18.636;2023-07-13T00:18:43;97965.34;;;22.48;100.00
56992;BME280;42885;49.754;18.636;2023-07-13T00:21:15;97964.33;;;22.49;100.00
56992;BME280;42885;49.754;18.636;2023-07-13T00:23:46;97966.98;;;22.53;100.00
56992;BME280;42885;49.754;18.636;2023-07-13T00:26:17;97957.02;;;22.47;100.00
56992;BME280;42885;49.754;18.636;2023-07-13T00:28:48;97960.84;;;22.53;100.00
56992;BME280;42885;49.754;18.636;2023-07-13T00:31:20;97952.70;;;22.46;100.00
56992;BME280;42885;49.754;18.636;2023-07-13T00:33:51;97949.36;;;22.44;100.00
56992;BME280;42885;49.754;18.636;2023-07-13T00:36:22;97947.21;;;22.44;100.00
56992;BME280;42885;49.754;18.636;2023-07-13T00:38:54;97936.46;;;22.28;100.00
56992;BME280;42885;49.754;18.636;2023-07-13T00:41:25;97941.89;;;22.39;100.00
56992;BME280;42885;49.754;18.636;2023-07-13T00:43:56;97944.27;;;22.07;100.00
56992;BME280;42885;49.754;18.636;2023-07-13T00:46:31;97944.55;;;22.12;100.00
56992;BME280;42885;49.754;18.636;2023-07-13T00:49:06;97938.30;;;22.00;100.00
56992;BME280;42885;49.754;18.636;2023-07-13T00:51:48;97939.12;;;22.28;100.00
56992;BME280;42885;49.754;18.636;2023-07-13T00:54:45;97933.68;;;22.22;100.00
56992;BME280;42885;49.754;18.636;2023-07-13T00:56:56;97931.81;;;22.31;100.00
56992;BME280;42885;49.754;18.636;2023-07-13T00:59:28;97938.04;;;22.19;100.00
56992;BME280;42885;49.754;18.636;2023-07-13T01:02:00;97945.36;;;22.44;100.00
56992;BME280;42885;49.754;18.636;2023-07-13T01:04:31;97956.18;;;21.88;100.00
56992;BME280;42885;49.754;18.636;2023-07-13T01:07:02;97949.92;;;22.04;100.00
56992;BME280;42885;49.754;18.636;2023-07-13T01:09:33;97946.45;;;21.99;100.00
56992;BME280;42885;49.754;18.636;2023-07-13T01:12:04;97946.89;;;22.15;100.00
56992;BME280;42885;49.754;18.636;2023-07-13T01:14:35;97945.93;;;22.04;100.00
56992;BME280;42885;49.754;18.636;2023-07-13T01:17:09;97952.02;;;22.21;100.00
56992;BME280;42885;49.754;18.636;2023-07-13T01:19:45;97949.28;;;22.02;100.00
56992;BME280;42885;49.754;18.636;2023-07-13T01:22:18;97948.94;;;22.32;100.00
56992;BME280;42885;49.754;18.636;2023-07-13T01:24:53;97954.02;;;22.50;100.00
56992;BME280;42885;49.754;18.636;2023-07-13T01:27:26;97952.22;;;22.11;100.00
56992;BME280;42885;49.754;18.636;2023-07-13T01:29:57;97942.52;;;22.22;100.00
56992;BME280;42885;49.754;18.636;2023-07-13T01:32:30;97938.89;;;22.43;100.00
56992;BME280;42885;49.754;18.636;2023-07-13T01:35:03;97918.44;;;22.35;100.00
56992;BME280;42885;49.754;18.636;2023-07-13T01:37:34;97908.58;;;22.12;100.00
56992;BME280;42885;49.754;18.636;2023-07-13T01:40:06;97900.46;;;22.09;100.00
56992;BME280;42885;49.754;18.636;2023-07-13T01:42:38;97907.02;;;21.98;100.00
56992;BME280;42885;49.754;18.636;2023-07-13T01:45:10;97903.61;;;22.09;100.00
56992;BME280;42885;49.754;18.636;2023-07-13T01:47:41;97916.45;;;22.05;100.00
56992;BME280;42885;49.754;18.636;2023-07-13T01:50:12;97937.67;;;22.22;100.00
56992;BME280;42885;49.754;18.636;2023-07-13T01:52:43;97955.21;;;22.12;100.00
56992;BME280;42885;49.754;18.636;2023-07-13T01:55:15;97961.27;;;22.02;100.00
56992;BME280;42885;49.754;18.636;2023-07-13T01:57:46;97946.50;;;21.91;100.00
56992;BME280;42885;49.754;18.636;2023-07-13T02:00:17;97943.27;;;22.08;100.00
56992;BME280;42885;49.754;18.636;2023-07-13T02:02:52;97962.92;;;22.07;100.00
56992;BME280;42885;49.754;18.636;2023-07-13T02:05:23;97965.95;;;21.99;100.00
56992;BME280;42885;49.754;18.636;2023-07-13T02:07:54;97957.38;;;22.17;100.00
56992;BME280;42885;49.754;18.636;2023-07-13T02:10:25;97961.02;;;21.84;100.00
56992;BME280;42885;49.754;18.636;2023-07-13T02:12:56;97965.95;;;21.99;100.00
56992;BME280;42885;49.754;18.636;2023-07-13T02:15:27;97968.61;;;21.99;100.00
56992;BME280;42885;49.754;18.636;2023-07-13T02:17:58;97949.60;;;22.03;100.00
56992;BME280;42885;49.754;18.636;2023-07-13T02:20:29;97944.45;;;22.28;100.00
56992;BME280;42885;49.754;18.636;2023-07-13T02:23:01;97931.66;;;22.55;100.00
56992;BME280;42885;49.754;18.636;2023-07-13T02:25:32;97935.61;;;22.32;100.00
56992;BME280;42885;49.754;18.636;2023-07-13T02:28:03;97936.56;;;22.12;100.00
56992;BME280;42885;49.754;18.636;2023-07-13T02:30:35;97946.53;;;21.82;100.00
56992;BME280;42885;49.754;18.636;2023-07-13T02:33:06;97948.91;;;21.77;100.00
56992;BME280;42885;49.754;18.636;2023-07-13T02:35:37;97940.42;;;21.69;100.00
56992;BME280;42885;49.754;18.636;2023-07-13T02:38:07;97932.44;;;21.69;100.00
56992;BME280;42885;49.754;18.636;2023-07-13T02:40:39;97923.28;;;21.72;100.00
56992;BME280;42885;49.754;18.636;2023-07-13T02:43:10;97915.69;;;21.96;100.00
56992;BME280;42885;49.754;18.636;2023-07-13T02:45:46;97914.89;;;21.88;100.00
56992;BME280;42885;49.754;18.636;2023-07-13T02:48:17;97914.28;;;21.73;100.00
56992;BME280;42885;49.754;18.636;2023-07-13T02:50:49;97916.95;;;21.65;100.00
56992;BME280;42885;49.754;18.636;2023-07-13T02:53:19;97923.48;;;21.58;100.00
56992;BME280;42885;49.754;18.636;2023-07-13T02:55:51;97925.42;;;21.81;100.00
56992;BME280;42885;49.754;18.636;2023-07-13T02:58:22;97919.61;;;22.09;100.00
56992;BME280;42885;49.754;18.636;2023-07-13T03:00:53;97921.63;;;22.03;100.00
56992;BME280;42885;49.754;18.636;2023-07-13T03:03:24;97913.59;;;21.79;100.00
56992;BME280;42885;49.754;18.636;2023-07-13T03:06:00;97909.92;;;21.84;100.00
56992;BME280;42885;49.754;18.636;2023-07-13T03:08:35;97914.48;;;21.71;100.00
56992;BME280;42885;49.754;18.636;2023-07-13T03:11:09;97918.06;;;22.14;100.00
56992;BME280;42885;49.754;18.636;2023-07-13T03:13:42;97919.83;;;22.26;100.00
56992;BME280;42885;49.754;18.636;2023-07-13T03:16:14;97913.16;;;21.63;100.00
56992;BME280;42885;49.754;18.636;2023-07-13T03:18:48;97911.66;;;21.61;100.00
56992;BME280;42885;49.754;18.636;2023-07-13T03:21:19;97906.09;;;21.83;100.00
56992;BME280;42885;49.754;18.636;2023-07-13T03:23:51;97902.55;;;22.22;100.00
56992;BME280;42885;49.754;18.636;2023-07-13T03:26:22;97898.91;;;21.88;100.00
56992;BME280;42885;49.754;18.636;2023-07-13T03:28:53;97897.16;;;22.03;100.00
56992;BME280;42885;49.754;18.636;2023-07-13T03:31:28;97905.32;;;22.02;100.00
56992;BME280;42885;49.754;18.636;2023-07-13T03:34:00;97903.25;;;22.12;100.00
56992;BME280;42885;49.754;18.636;2023-07-13T03:36:32;97893.22;;;22.22;100.00
56992;BME280;42885;49.754;18.636;2023-07-13T03:39:04;97902.34;;;22.24;100.00
56992;BME280;42885;49.754;18.636;2023-07-13T03:41:38;97897.99;;;22.93;100.00
56992;BME280;42885;49.754;18.636;2023-07-13T03:44:10;97896.88;;;22.45;100.00
56992;BME280;42885;49.754;18.636;2023-07-13T03:46:42;97895.20;;;22.71;100.00
56992;BME280;42885;49.754;18.636;2023-07-13T03:49:13;97890.92;;;22.62;100.00
56992;BME280;42885;49.754;18.636;2023-07-13T03:51:44;97894.19;;;22.91;100.00
56992;BME280;42885;49.754;18.636;2023-07-13T03:54:16;97899.36;;;23.23;100.00
56992;BME280;42885;49.754;18.636;2023-07-13T03:56:47;97898.70;;;23.06;100.00
56992;BME280;42885;49.754;18.636;2023-07-13T03:59:19;97903.48;;;23.10;100.00
56992;BME280;42885;49.754;18.636;2023-07-13T04:01:50;97900.39;;;22.88;100.00
56992;BME280;42885;49.754;18.636;2023-07-13T04:04:22;97903.00;;;22.73;100.00
56992;BME280;42885;49.754;18.636;2023-07-13T04:06:53;97895.98;;;22.57;100.00
56992;BME280;42885;49.754;18.636;2023-07-13T04:09:25;97894.61;;;22.61;100.00
56992;BME280;42885;49.754;18.636;2023-07-13T04:11:56;97886.78;;;22.78;100.00
56992;BME280;42885;49.754;18.636;2023-07-13T04:14:27;97890.22;;;22.87;100.00
56992;BME280;42885;49.754;18.636;2023-07-13T04:16:58;97897.37;;;22.87;100.00
56992;BME280;42885;49.754;18.636;2023-07-13T04:19:29;97898.98;;;22.96;100.00
56992;BME280;42885;49.754;18.636;2023-07-13T04:22:00;97901.66;;;23.11;100.00
56992;BME280;42885;49.754;18.636;2023-07-13T04:24:31;97898.29;;;23.32;100.00
56992;BME280;42885;49.754;18.636;2023-07-13T04:27:03;97890.72;;;23.21;100.00
56992;BME280;42885;49.754;18.636;2023-07-13T04:29:34;97891.19;;;23.24;100.00
56992;BME280;42885;49.754;18.636;2023-07-13T04:32:05;97887.12;;;23.33;100.00
56992;BME280;42885;49.754;18.636;2023-07-13T04:34:37;97880.14;;;23.43;100.00
56992;BME280;42885;49.754;18.636;2023-07-13T04:37:08;97884.69;;;23.53;100.00
56992;BME280;42885;49.754;18.636;2023-07-13T04:39:39;97892.88;;;23.67;100.00
56992;BME280;42885;49.754;18.636;2023-07-13T04:42:10;97886.50;;;23.83;100.00
56992;BME280;42885;49.754;18.636;2023-07-13T04:44:41;97883.73;;;23.76;100.00
56992;BME280;42885;49.754;18.636;2023-07-13T04:47:12;97873.64;;;23.82;100.00
56992;BME280;42885;49.754;18.636;2023-07-13T04:49:45;97875.99;;;24.07;100.00
56992;BME280;42885;49.754;18.636;2023-07-13T04:52:16;97881.14;;;24.19;100.00
56992;BME280;42885;49.754;18.636;2023-07-13T04:54:47;97875.89;;;24.37;100.00
56992;BME280;42885;49.754;18.636;2023-07-13T04:57:18;97873.93;;;24.64;100.00
56992;BME280;42885;49.754;18.636;2023-07-13T04:59:49;97869.50;;;24.78;100.00
56992;BME280;42885;49.754;18.636;2023-07-13T05:02:21;97862.45;;;24.92;100.00
56992;BME280;42885;49.754;18.636;2023-07-13T05:04:52;97871.23;;;24.96;100.00
56992;BME280;42885;49.754;18.636;2023-07-13T05:07:24;97869.43;;;25.04;100.00
56992;BME280;42885;49.754;18.636;2023-07-13T05:09:56;97871.45;;;25.01;100.00
56992;BME280;42885;49.754;18.636;2023-07-13T05:12:27;97869.89;;;24.96;100.00
56992;BME280;42885;49.754;18.636;2023-07-13T05:14:59;97874.72;;;25.14;100.00
56992;BME280;42885;49.754;18.636;2023-07-13T05:17:30;97877.02;;;25.35;100.00
56992;BME280;42885;49.754;18.636;2023-07-13T05:20:01;97883.73;;;25.42;100.00
56992;BME280;42885;49.754;18.636;2023-07-13T05:22:32;97881.84;;;25.36;100.00
56992;BME280;42885;49.754;18.636;2023-07-13T05:25:06;97875.80;;;25.38;100.00
56992;BME280;42885;49.754;18.636;2023-07-13T05:27:38;97879.70;;;25.53;100.00
56992;BME280;42885;49.754;18.636;2023-07-13T05:30:09;97884.46;;;25.58;100.00
56992;BME280;42885;49.754;18.636;2023-07-13T05:32:41;97887.92;;;25.51;100.00
56992;BME280;42885;49.754;18.636;2023-07-13T05:35:13;97891.78;;;25.60;100.00
56992;BME280;42885;49.754;18.636;2023-07-13T05:37:44;97894.98;;;25.59;100.00
56992;BME280;42885;49.754;18.636;2023-07-13T05:40:15;97889.15;;;25.66;100.00
56992;BME280;42885;49.754;18.636;2023-07-13T05:42:46;97893.36;;;25.65;100.00
56992;BME280;42885;49.754;18.636;2023-07-13T05:45:18;97889.78;;;25.75;100.00
56992;BME280;42885;49.754;18.636;2023-07-13T05:47:49;97895.87;;;25.73;100.00
56992;BME280;42885;49.754;18.636;2023-07-13T05:50:20;97898.48;;;25.60;100.00
56992;BME280;42885;49.754;18.636;2023-07-13T05:52:51;97889.77;;;25.68;100.00
56992;BME280;42885;49.754;18.636;2023-07-13T05:55:22;97896.75;;;25.45;100.00
56992;BME280;42885;49.754;18.636;2023-07-13T05:57:53;97896.17;;;25.74;100.00
56992;BME280;42885;49.754;18.636;2023-07-13T06:00:25;97905.87;;;26.06;100.00
56992;BME280;42885;49.754;18.636;2023-07-13T06:02:56;97905.22;;;26.22;100.00
56992;BME280;42885;49.754;18.636;2023-07-13T06:05:28;97907.64;;;25.86;100.00
56992;BME280;42885;49.754;18.636;2023-07-13T06:07:59;97914.04;;;25.84;100.00
56992;BME280;42885;49.754;18.636;2023-07-13T06:10:32;97914.09;;;25.98;100.00
56992;BME280;42885;49.754;18.636;2023-07-13T06:13:11;97909.13;;;26.26;100.00
56992;BME280;42885;49.754;18.636;2023-07-13T06:15:42;97909.03;;;25.92;100.00
56992;BME280;42885;49.754;18.636;2023-07-13T06:18:12;97907.09;;;26.28;100.00
56992;BME280;42885;49.754;18.636;2023-07-13T06:20:43;97903.42;;;26.11;100.00
56992;BME280;42885;49.754;18.636;2023-07-13T06:23:14;97905.69;;;26.15;100.00
56992;BME280;42885;49.754;18.636;2023-07-13T06:25:45;97904.83;;;26.52;100.00
56992;BME280;42885;49.754;18.636;2023-07-13T06:28:16;97909.48;;;26.41;100.00
56992;BME280;42885;49.754;18.636;2023-07-13T06:30:47;97906.52;;;26.53;100.00
56992;BME280;42885;49.754;18.636;2023-07-13T06:33:18;97914.45;;;26.50;100.00
56992;BME280;42885;49.754;18.636;2023-07-13T06:35:48;97909.70;;;26.59;100.00
56992;BME280;42885;49.754;18.636;2023-07-13T06:38:20;97918.16;;;26.56;100.00
56992;BME280;42885;49.754;18.636;2023-07-13T06:40:51;97916.62;;;26.64;100.00
56992;BME280;42885;49.754;18.636;2023-07-13T06:43:22;97918.60;;;26.73;100.00
56992;BME280;42885;49.754;18.636;2023-07-13T06:45:55;97918.28;;;26.59;100.00
56992;BME280;42885;49.754;18.636;2023-07-13T06:48:27;97918.08;;;26.87;100.00
56992;BME280;42885;49.754;18.636;2023-07-13T06:50:58;97920.95;;;27.26;100.00
56992;BME280;42885;49.754;18.636;2023-07-13T06:53:29;97927.95;;;27.34;100.00
56992;BME280;42885;49.754;18.636;2023-07-13T06:56:00;97935.64;;;27.17;100.00
56992;BME280;42885;49.754;18.636;2023-07-13T06:58:34;97940.20;;;27.03;100.00
56992;BME280;42885;49.754;18.636;2023-07-13T07:01:04;97946.91;;;26.89;100.00
56992;BME280;42885;49.754;18.636;2023-07-13T07:03:35;97953.18;;;26.79;100.00
56992;BME280;42885;49.754;18.636;2023-07-13T07:06:15;97955.86;;;26.86;100.00
56992;BME280;42885;49.754;18.636;2023-07-13T07:08:48;97955.44;;;26.82;100.00
56992;BME280;42885;49.754;18.636;2023-07-13T07:11:25;97956.72;;;26.93;100.00
56992;BME280;42885;49.754;18.636;2023-07-13T07:13:56;97954.02;;;27.00;100.00
56992;BME280;42885;49.754;18.636;2023-07-13T07:16:27;97953.50;;;27.20;100.00
56992;BME280;42885;49.754;18.636;2023-07-13T07:18:58;97958.05;;;27.00;100.00
56992;BME280;42885;49.754;18.636;2023-07-13T07:21:29;97967.66;;;27.12;100.00
56992;BME280;42885;49.754;18.636;2023-07-13T07:24:01;97970.66;;;27.06;100.00
56992;BME280;42885;49.754;18.636;2023-07-13T07:26:33;97972.72;;;26.90;100.00
56992;BME280;42885;49.754;18.636;2023-07-13T07:29:06;97968.48;;;27.19;100.00
56992;BME280;42885;49.754;18.636;2023-07-13T07:31:37;97969.83;;;27.12;100.00
56992;BME280;42885;49.754;18.636;2023-07-13T07:34:07;97977.48;;;27.09;100.00
56992;BME280;42885;49.754;18.636;2023-07-13T07:36:39;97967.66;;;27.12;100.00
56992;BME280;42885;49.754;18.636;2023-07-13T07:39:09;97966.72;;;27.15;100.00
56992;BME280;42885;49.754;18.636;2023-07-13T07:41:41;97966.72;;;27.15;100.00
56992;BME280;42885;49.754;18.636;2023-07-13T07:44:12;97967.55;;;27.23;100.00
56992;BME280;42885;49.754;18.636;2023-07-13T07:46:43;97984.16;;;27.35;100.00
56992;BME280;42885;49.754;18.636;2023-07-13T07:49:15;97974.97;;;27.41;100.00
56992;BME280;42885;49.754;18.636;2023-07-13T07:51:46;97979.30;;;27.35;100.00
56992;BME280;42885;49.754;18.636;2023-07-13T07:54:17;97977.75;;;27.37;100.00
56992;BME280;42885;49.754;18.636;2023-07-13T07:56:48;97972.72;;;27.24;100.00
56992;BME280;42885;49.754;18.636;2023-07-13T07:59:19;97967.30;;;26.77;100.00
56992;BME280;42885;49.754;18.636;2023-07-13T08:01:50;97961.65;;;26.83;100.00
56992;BME280;42885;49.754;18.636;2023-07-13T08:04:21;97963.54;;;26.96;100.00
56992;BME280;42885;49.754;18.636;2023-07-13T08:06:52;97966.27;;;26.64;100.00
56992;BME280;42885;49.754;18.636;2023-07-13T08:09:26;97962.12;;;26.62;100.00
56992;BME280;42885;49.754;18.636;2023-07-13T08:11:57;97967.07;;;26.45;100.00
56992;BME280;42885;49.754;18.636;2023-07-13T08:14:28;97965.27;;;26.34;100.00
56992;BME280;42885;49.754;18.636;2023-07-13T08:16:59;97962.48;;;26.07;100.00
56992;BME280;42885;49.754;18.636;2023-07-13T08:19:30;97960.98;;;26.40;100.00
56992;BME280;42885;49.754;18.636;2023-07-13T08:22:01;97960.98;;;26.40;100.00
56992;BME280;42885;49.754;18.636;2023-07-13T08:24:32;97960.20;;;26.29;100.00
56992;BME280;42885;49.754;18.636;2023-07-13T08:27:04;97952.31;;;26.45;100.00
56992;BME280;42885;49.754;18.636;2023-07-13T08:29:34;97954.47;;;26.38;100.00
56992;BME280;42885;49.754;18.636;2023-07-13T08:32:06;97961.25;;;26.34;100.00
56992;BME280;42885;49.754;18.636;2023-07-13T08:34:43;97950.44;;;26.38;100.00
56992;BME280;42885;49.754;18.636;2023-07-13T08:37:14;97950.74;;;26.33;100.00
56992;BME280;42885;49.754;18.636;2023-07-13T08:39:46;97950.44;;;26.38;100.00
56992;BME280;42885;49.754;18.636;2023-07-13T08:42:37;97958.87;;;27.07;100.00
56992;BME280;42885;49.754;18.636;2023-07-13T08:45:23;97956.80;;;26.31;100.00
56992;BME280;42885;49.754;18.636;2023-07-13T08:48:09;97958.76;;;26.02;100.00
56992;BME280;42885;49.754;18.636;2023-07-13T08:50:43;97956.47;;;25.74;100.00
56992;BME280;42885;49.754;18.636;2023-07-13T08:53:13;97961.72;;;25.25;100.00
56992;BME280;42885;49.754;18.636;2023-07-13T08:55:46;97953.14;;;24.91;100.00
56992;BME280;42885;49.754;18.636;2023-07-13T08:58:18;97955.26;;;25.13;100.00
56992;BME280;42885;49.754;18.636;2023-07-13T09:06:35;97983.57;;;24.90;100.00
56992;BME280;42885;49.754;18.636;2023-07-13T09:09:17;97997.38;;;24.60;100.00
56992;BME280;42885;49.754;18.636;2023-07-13T09:11:53;97999.13;;;24.05;100.00
56992;BME280;42885;49.754;18.636;2023-07-13T09:17:33;98004.54;;;23.97;100.00
56992;BME280;42885;49.754;18.636;2023-07-13T09:20:19;97991.80;;;23.88;100.00
56992;BME280;42885;49.754;18.636;2023-07-13T09:22:42;97996.27;;;23.62;100.00
56992;BME280;42885;49.754;18.636;2023-07-13T09:25:31;98003.12;;;23.60;100.00
56992;BME280;42885;49.754;18.636;2023-07-13T09:28:10;98008.77;;;23.46;100.00
56992;BME280;42885;49.754;18.636;2023-07-13T09:30:56;98018.80;;;23.29;100.00
56992;BME280;42885;49.754;18.636;2023-07-13T09:33:27;98029.48;;;22.82;100.00
56992;BME280;42885;49.754;18.636;2023-07-13T09:36:00;98019.99;;;22.52;100.00
56992;BME280;42885;49.754;18.636;2023-07-13T09:38:32;98034.02;;;22.46;100.00
56992;BME280;42885;49.754;18.636;2023-07-13T09:41:18;98045.48;;;22.15;100.00
56992;BME280;42885;49.754;18.636;2023-07-13T09:44:09;98051.41;;;22.65;100.00
56992;BME280;42885;49.754;18.636;2023-07-13T09:46:52;98067.11;;;21.68;100.00
56992;BME280;42885;49.754;18.636;2023-07-13T09:49:33;98074.58;;;21.56;100.00
56992;BME280;42885;49.754;18.636;2023-07-13T09:52:11;98085.88;;;21.45;100.00
56992;BME280;42885;49.754;18.636;2023-07-13T09:54:34;98088.72;;;21.48;100.00
56992;BME280;42885;49.754;18.636;2023-07-13T09:57:17;98099.21;;;21.41;100.00
56992;BME280;42885;49.754;18.636;2023-07-13T09:59:50;98098.03;;;21.40;100.00
56992;BME280;42885;49.754;18.636;2023-07-13T10:02:33;98103.70;;;21.45;100.00
56992;BME280;42885;49.754;18.636;2023-07-13T10:05:11;98110.02;;;21.85;100.00
56992;BME280;42885;49.754;18.636;2023-07-13T10:07:44;98126.15;;;21.67;100.00
56992;BME280;42885;49.754;18.636;2023-07-13T10:10:18;98132.47;;;21.45;100.00
56992;BME280;42885;49.754;18.636;2023-07-13T10:12:50;98137.62;;;21.22;100.00
56992;BME280;42885;49.754;18.636;2023-07-13T10:15:23;98150.09;;;21.17;100.00
56992;BME280;42885;49.754;18.636;2023-07-13T10:17:56;98153.12;;;21.39;100.00
56992;BME280;42885;49.754;18.636;2023-07-13T10:20:28;98149.13;;;21.39;100.00
56992;BME280;42885;49.754;18.636;2023-07-13T10:23:11;98151.13;;;21.50;100.00
56992;BME280;42885;49.754;18.636;2023-07-13T10:25:42;98161.92;;;21.48;100.00
56992;BME280;42885;49.754;18.636;2023-07-13T10:28:28;98167.77;;;21.48;100.00
56992;BME280;42885;49.754;18.636;2023-07-13T10:31:00;98168.27;;;21.51;100.00
56992;BME280;42885;49.754;18.636;2023-07-13T10:33:32;98168.77;;;21.55;100.00
56992;BME280;42885;49.754;18.636;2023-07-13T10:36:17;98172.92;;;21.62;100.00
56992;BME280;42885;49.754;18.636;2023-07-13T10:38:43;98184.25;;;21.59;100.00
56992;BME280;42885;49.754;18.636;2023-07-13T10:41:18;98181.23;;;21.54;100.00
56992;BME280;42885;49.754;18.636;2023-07-13T10:43:54;98191.75;;;21.68;100.00
56992;BME280;42885;49.754;18.636;2023-07-13T10:46:28;98190.09;;;21.76;100.00
56992;BME280;42885;49.754;18.636;2023-07-13T10:49:02;98194.75;;;21.98;100.00
56992;BME280;42885;49.754;18.636;2023-07-13T10:51:35;98202.23;;;21.74;100.00
56992;BME280;42885;49.754;18.636;2023-07-13T10:54:19;98203.89;;;22.17;100.00
56992;BME280;42885;49.754;18.636;2023-07-13T10:57:06;98200.30;;;22.53;100.00
56992;BME280;42885;49.754;18.636;2023-07-13T10:59:27;98192.83;;;22.53;100.00
56992;BME280;42885;49.754;18.636;2023-07-13T11:04:46;98198.19;;;22.24;100.00
56992;BME280;42885;49.754;18.636;2023-07-13T11:07:24;98199.07;;;21.99;100.00
56992;BME280;42885;49.754;18.636;2023-07-13T11:10:02;98199.20;;;22.14;100.00
56992;BME280;42885;49.754;18.636;2023-07-13T11:12:52;98202.23;;;21.74;100.00
56992;BME280;42885;49.754;18.636;2023-07-13T11:15:44;98207.02;;;21.62;100.00
56992;BME280;42885;49.754;18.636;2023-07-13T11:18:21;98208.03;;;21.61;100.00
56992;BME280;42885;49.754;18.636;2023-07-13T11:20:52;98205.59;;;21.76;100.00
56992;BME280;42885;49.754;18.636;2023-07-13T11:23:29;98200.05;;;22.15;100.00
56992;BME280;42885;49.754;18.636;2023-07-13T11:26:02;98203.73;;;21.77;100.00
56992;BME280;42885;49.754;18.636;2023-07-13T11:28:35;98212.58;;;21.77;100.00
56992;BME280;42885;49.754;18.636;2023-07-13T11:31:14;98215.06;;;21.91;100.00
56992;BME280;42885;49.754;18.636;2023-07-13T11:33:55;98215.55;;;21.99;100.00
56992;BME280;42885;49.754;18.636;2023-07-13T11:36:23;98216.20;;;22.13;100.00
56992;BME280;42885;49.754;18.636;2023-07-13T11:39:00;98226.06;;;21.96;100.00
56992;BME280;42885;49.754;18.636;2023-07-13T11:42:02;98225.70;;;22.08;100.00
56992;BME280;42885;49.754;18.636;2023-07-13T11:44:14;98218.03;;;22.30;100.00
56992;BME280;42885;49.754;18.636;2023-07-13T11:46:49;98214.02;;;22.25;100.00
56992;BME280;42885;49.754;18.636;2023-07-13T11:49:23;98209.37;;;22.11;100.00
56992;BME280;42885;49.754;18.636;2023-07-13T11:51:55;98208.40;;;21.99;100.00
56992;BME280;42885;49.754;18.636;2023-07-13T11:54:32;98200.55;;;22.06;100.00
56992;BME280;42885;49.754;18.636;2023-07-13T11:57:25;98198.68;;;22.27;100.00
56992;BME280;42885;49.754;18.636;2023-07-13T11:59:56;98189.99;;;22.46;100.00
56992;BME280;42885;49.754;18.636;2023-07-13T12:02:34;98197.33;;;23.94;100.00
56992;BME280;42885;49.754;18.636;2023-07-13T12:05:05;98203.69;;;23.19;100.00
56992;BME280;42885;49.754;18.636;2023-07-13T12:07:39;98203.45;;;23.05;100.00
56992;BME280;42885;49.754;18.636;2023-07-13T12:10:20;98204.30;;;23.02;100.00
56992;BME280;42885;49.754;18.636;2023-07-13T12:12:56;98208.45;;;23.04;100.00
56992;BME280;42885;49.754;18.636;2023-07-13T12:15:44;98196.56;;;23.43;100.00
56992;BME280;42885;49.754;18.636;2023-07-13T12:18:22;98194.72;;;23.12;100.00
56992;BME280;42885;49.754;18.636;2023-07-13T12:20:56;98195.37;;;23.49;100.00
56992;BME280;42885;49.754;18.636;2023-07-13T12:23:30;98191.39;;;23.14;100.00
56992;BME280;42885;49.754;18.636;2023-07-13T12:26:04;98190.14;;;23.33;100.00
56992;BME280;42885;49.754;18.636;2023-07-13T12:28:38;98196.56;;;23.11;100.00
56992;BME280;42885;49.754;18.636;2023-07-13T12:31:24;98205.62;;;23.02;100.00
56992;BME280;42885;49.754;18.636;2023-07-13T12:34:00;98217.75;;;22.73;100.00
56992;BME280;42885;49.754;18.636;2023-07-13T12:36:34;98212.67;;;22.90;100.00
56992;BME280;42885;49.754;18.636;2023-07-13T12:39:28;98213.06;;;23.15;100.00
56992;BME280;42885;49.754;18.636;2023-07-13T12:41:42;98216.39;;;24.14;100.00
56992;BME280;42885;49.754;18.636;2023-07-13T12:44:17;98221.05;;;24.16;100.00
56992;BME280;42885;49.754;18.636;2023-07-13T12:47:04;98220.11;;;24.09;100.00
56992;BME280;42885;49.754;18.636;2023-07-13T12:49:32;98223.18;;;23.78;100.00
56992;BME280;42885;49.754;18.636;2023-07-13T12:52:13;98220.14;;;23.62;100.00
56992;BME280;42885;49.754;18.636;2023-07-13T12:55:10;98217.82;;;23.32;100.00
56992;BME280;42885;49.754;18.636;2023-07-13T12:57:53;98225.66;;;23.61;100.00
56992;BME280;42885;49.754;18.636;2023-07-13T13:02:50;98229.61;;;23.46;100.00
56992;BME280;42885;49.754;18.636;2023-07-13T13:05:27;98227.59;;;23.44;100.00
56992;BME280;42885;49.754;18.636;2023-07-13T13:07:58;98211.56;;;23.48;100.00
56992;BME280;42885;49.754;18.636;2023-07-13T13:10:29;98210.33;;;23.31;100.00
56992;BME280;42885;49.754;18.636;2023-07-13T13:13:00;98205.44;;;23.03;100.00
56992;BME280;42885;49.754;18.636;2023-07-13T13:15:31;98198.35;;;22.91;100.00
56992;BME280;42885;49.754;18.636;2023-07-13T13:18:02;98208.58;;;22.75;100.00
56992;BME280;42885;49.754;18.636;2023-07-13T13:20:33;98214.94;;;23.06;100.00
56992;BME280;42885;49.754;18.636;2023-07-13T13:23:07;98225.28;;;23.09;100.00
56992;BME280;42885;49.754;18.636;2023-07-13T13:25:38;98221.91;;;22.79;100.00